sensor_id;sensor_type;location;lat;lon;timestamp;temperature;humidity
19174;DHT22;9719;49.322;8.536;2022-10-29T00:04:19;17.00;88.10
19174;DHT22;9719;49.322;8.536;2022-10-29T00:09:21;17.00;88.00
19174;DHT22;9719;49.322;8.536;2022-10-29T00:14:24;17.00;87.90
19174;DHT22;9719;49.322;8.536;2022-10-29T00:19:27;16.90;88.20
19174;DHT22;9719;49.322;8.536;2022-10-29T00:24:29;16.90;88.40
19174;DHT22;9719;49.322;8.536;2022-10-29T00:29:32;16.90;88.20
19174;DHT22;9719;49.322;8.536;2022-10-29T00:34:34;16.80;88.30
19174;DHT22;9719;49.322;8.536;2022-10-29T00:39:36;16.80;88.10
19174;DHT22;9719;49.322;8.536;2022-10-29T00:44:40;17.40;88.70
19174;DHT22;9719;49.322;8.536;2022-10-29T00:49:42;16.80;88.60
19174;DHT22;9719;49.322;8.536;2022-10-29T00:54:47;16.70;88.60
19174;DHT22;9719;49.322;8.536;2022-10-29T00:59:51;16.70;88.70
19174;DHT22;9719;49.322;8.536;2022-10-29T01:04:53;16.80;88.60
19174;DHT22;9719;49.322;8.536;2022-10-29T01:09:56;16.80;88.60
19174;DHT22;9719;49.322;8.536;2022-10-29T01:15:07;16.80;88.40
19174;DHT22;9719;49.322;8.536;2022-10-29T01:20:31;16.70;88.50
19174;DHT22;9719;49.322;8.536;2022-10-29T01:25:55;16.70;89.00
19174;DHT22;9719;49.322;8.536;2022-10-29T01:31:16;16.70;89.10
19174;DHT22;9719;49.322;8.536;2022-10-29T01:36:26;16.80;89.10
19174;DHT22;9719;49.322;8.536;2022-10-29T01:41:32;16.90;89.00
19174;DHT22;9719;49.322;8.536;2022-10-29T01:46:44;17.00;88.80
19174;DHT22;9719;49.322;8.536;2022-10-29T01:51:49;17.00;88.60
19174;DHT22;9719;49.322;8.536;2022-10-29T01:56:53;16.90;88.50
19174;DHT22;9719;49.322;8.536;2022-10-29T02:02:05;16.90;88.40
19174;DHT22;9719;49.322;8.536;2022-10-29T02:07:13;16.80;88.30
19174;DHT22;9719;49.322;8.536;2022-10-29T02:12:22;16.70;88.40
19174;DHT22;9719;49.322;8.536;2022-10-29T02:17:29;16.60;88.30
19174;DHT22;9719;49.322;8.536;2022-10-29T02:22:32;16.50;88.50
19174;DHT22;9719;49.322;8.536;2022-10-29T02:27:34;16.40;88.50
19174;DHT22;9719;49.322;8.536;2022-10-29T02:32:37;16.30;88.50
19174;DHT22;9719;49.322;8.536;2022-10-29T02:37:39;16.20;88.70
19174;DHT22;9719;49.322;8.536;2022-10-29T02:42:41;16.20;88.60
19174;DHT22;9719;49.322;8.536;2022-10-29T02:47:45;16.20;88.80
19174;DHT22;9719;49.322;8.536;2022-10-29T02:52:47;16.20;89.00
19174;DHT22;9719;49.322;8.536;2022-10-29T02:57:49;16.10;89.20
19174;DHT22;9719;49.322;8.536;2022-10-29T03:02:52;16.20;89.30
19174;DHT22;9719;49.322;8.536;2022-10-29T03:07:54;16.20;89.30
19174;DHT22;9719;49.322;8.536;2022-10-29T03:12:57;16.20;89.40
19174;DHT22;9719;49.322;8.536;2022-10-29T03:18:01;16.30;89.30
19174;DHT22;9719;49.322;8.536;2022-10-29T03:23:04;16.30;89.20
19174;DHT22;9719;49.322;8.536;2022-10-29T03:28:06;16.30;89.20
19174;DHT22;9719;49.322;8.536;2022-10-29T03:33:10;16.30;89.20
19174;DHT22;9719;49.322;8.536;2022-10-29T03:38:12;16.30;89.20
19174;DHT22;9719;49.322;8.536;2022-10-29T03:43:14;16.30;89.10
19174;DHT22;9719;49.322;8.536;2022-10-29T03:48:17;16.20;89.00
19174;DHT22;9719;49.322;8.536;2022-10-29T03:53:19;16.20;89.20
19174;DHT22;9719;49.322;8.536;2022-10-29T03:58:22;16.20;89.20
19174;DHT22;9719;49.322;8.536;2022-10-29T04:03:27;16.20;89.20
19174;DHT22;9719;49.322;8.536;2022-10-29T04:08:29;16.20;89.30
19174;DHT22;9719;49.322;8.536;2022-10-29T04:13:31;16.20;89.30
19174;DHT22;9719;49.322;8.536;2022-10-29T04:18:35;16.20;89.30
19174;DHT22;9719;49.322;8.536;2022-10-29T04:23:37;16.20;89.40
19174;DHT22;9719;49.322;8.536;2022-10-29T04:28:39;16.20;89.40
19174;DHT22;9719;49.322;8.536;2022-10-29T04:33:43;16.20;89.60
19174;DHT22;9719;49.322;8.536;2022-10-29T04:38:45;16.20;89.70
19174;DHT22;9719;49.322;8.536;2022-10-29T04:43:48;16.20;89.60
19174;DHT22;9719;49.322;8.536;2022-10-29T04:48:51;16.30;89.70
19174;DHT22;9719;49.322;8.536;2022-10-29T04:53:53;16.40;89.60
19174;DHT22;9719;49.322;8.536;2022-10-29T04:58:55;16.40;89.60
19174;DHT22;9719;49.322;8.536;2022-10-29T05:03:58;16.40;89.40
19174;DHT22;9719;49.322;8.536;2022-10-29T05:09:01;16.50;89.50
19174;DHT22;9719;49.322;8.536;2022-10-29T05:14:03;16.50;89.50
19174;DHT22;9719;49.322;8.536;2022-10-29T05:19:06;16.50;89.50
19174;DHT22;9719;49.322;8.536;2022-10-29T05:24:08;16.50;89.50
19174;DHT22;9719;49.322;8.536;2022-10-29T05:29:10;16.50;89.40
19174;DHT22;9719;49.322;8.536;2022-10-29T05:34:14;16.50;89.40
19174;DHT22;9719;49.322;8.536;2022-10-29T05:39:16;16.50;89.40
19174;DHT22;9719;49.322;8.536;2022-10-29T05:44:18;16.50;89.30
19174;DHT22;9719;49.322;8.536;2022-10-29T05:49:21;16.60;89.20
19174;DHT22;9719;49.322;8.536;2022-10-29T05:54:23;16.60;89.30
19174;DHT22;9719;49.322;8.536;2022-10-29T05:59:25;16.60;89.20
19174;DHT22;9719;49.322;8.536;2022-10-29T06:04:29;16.50;89.20
19174;DHT22;9719;49.322;8.536;2022-10-29T06:09:31;16.60;89.20
19174;DHT22;9719;49.322;8.536;2022-10-29T06:14:33;16.60;89.20
19174;DHT22;9719;49.322;8.536;2022-10-29T06:19:36;16.70;89.40
19174;DHT22;9719;49.322;8.536;2022-10-29T06:24:38;16.70;89.30
19174;DHT22;9719;49.322;8.536;2022-10-29T06:29:40;16.70;89.20
19174;DHT22;9719;49.322;8.536;2022-10-29T06:34:44;16.70;89.10
19174;DHT22;9719;49.322;8.536;2022-10-29T06:39:46;16.60;88.90
19174;DHT22;9719;49.322;8.536;2022-10-29T06:44:48;16.60;89.00
19174;DHT22;9719;49.322;8.536;2022-10-29T06:49:51;16.50;89.00
19174;DHT22;9719;49.322;8.536;2022-10-29T06:54:53;16.60;89.00
19174;DHT22;9719;49.322;8.536;2022-10-29T06:59:56;16.60;89.00
19174;DHT22;9719;49.322;8.536;2022-10-29T07:04:59;16.60;89.00
19174;DHT22;9719;49.322;8.536;2022-10-29T07:10:01;16.60;89.00
19174;DHT22;9719;49.322;8.536;2022-10-29T07:15:04;16.60;89.20
19174;DHT22;9719;49.322;8.536;2022-10-29T07:20:09;16.70;89.20
19174;DHT22;9719;49.322;8.536;2022-10-29T07:25:11;16.70;89.10
19174;DHT22;9719;49.322;8.536;2022-10-29T07:30:13;16.80;89.00
19174;DHT22;9719;49.322;8.536;2022-10-29T07:35:17;16.90;89.10
19174;DHT22;9719;49.322;8.536;2022-10-29T07:40:19;17.00;89.00
19174;DHT22;9719;49.322;8.536;2022-10-29T07:45:21;17.00;88.80
19174;DHT22;9719;49.322;8.536;2022-10-29T07:50:25;17.10;88.70
19174;DHT22;9719;49.322;8.536;2022-10-29T07:55:28;17.10;88.60
19174;DHT22;9719;49.322;8.536;2022-10-29T08:00:31;17.10;88.40
19174;DHT22;9719;49.322;8.536;2022-10-29T08:05:35;17.20;88.40
19174;DHT22;9719;49.322;8.536;2022-10-29T08:10:37;17.30;88.30
19174;DHT22;9719;49.322;8.536;2022-10-29T08:15:39;17.40;88.40
19174;DHT22;9719;49.322;8.536;2022-10-29T08:20:42;17.60;88.10
19174;DHT22;9719;49.322;8.536;2022-10-29T08:25:44;17.70;87.90
19174;DHT22;9719;49.322;8.536;2022-10-29T08:30:49;17.80;87.90
19174;DHT22;9719;49.322;8.536;2022-10-29T08:35:52;18.00;87.50
19174;DHT22;9719;49.322;8.536;2022-10-29T08:41:09;18.20;87.30
19174;DHT22;9719;49.322;8.536;2022-10-29T08:46:17;18.40;87.10
19174;DHT22;9719;49.322;8.536;2022-10-29T08:51:26;18.60;86.60
19174;DHT22;9719;49.322;8.536;2022-10-29T08:56:34;18.70;86.00
19174;DHT22;9719;49.322;8.536;2022-10-29T09:01:36;18.90;85.90
19174;DHT22;9719;49.322;8.536;2022-10-29T09:06:45;19.00;85.80
19174;DHT22;9719;49.322;8.536;2022-10-29T09:12:28;19.10;85.60
19174;DHT22;9719;49.322;8.536;2022-10-29T09:17:36;19.30;85.30
19174;DHT22;9719;49.322;8.536;2022-10-29T09:22:49;19.60;84.90
19174;DHT22;9719;49.322;8.536;2022-10-29T09:28:05;19.90;84.80
19174;DHT22;9719;49.322;8.536;2022-10-29T09:33:15;20.40;84.80
19174;DHT22;9719;49.322;8.536;2022-10-29T09:38:22;21.70;85.50
19174;DHT22;9719;49.322;8.536;2022-10-29T09:43:34;23.50;82.00
19174;DHT22;9719;49.322;8.536;2022-10-29T09:48:43;25.10;78.20
19174;DHT22;9719;49.322;8.536;2022-10-29T09:53:48;26.10;74.20
19174;DHT22;9719;49.322;8.536;2022-10-29T09:58:53;26.10;72.20
19174;DHT22;9719;49.322;8.536;2022-10-29T10:04:11;25.70;71.10
19174;DHT22;9719;49.322;8.536;2022-10-29T10:09:16;25.20;70.90
19174;DHT22;9719;49.322;8.536;2022-10-29T10:14:20;24.70;71.40
19174;DHT22;9719;49.322;8.536;2022-10-29T10:19:26;24.20;71.40
19174;DHT22;9719;49.322;8.536;2022-10-29T10:24:32;24.00;71.50
19174;DHT22;9719;49.322;8.536;2022-10-29T10:29:34;24.10;71.30
19174;DHT22;9719;49.322;8.536;2022-10-29T10:34:38;24.80;69.10
19174;DHT22;9719;49.322;8.536;2022-10-29T10:39:42;25.80;67.10
19174;DHT22;9719;49.322;8.536;2022-10-29T10:44:47;26.30;64.90
19174;DHT22;9719;49.322;8.536;2022-10-29T10:49:52;26.70;64.10
19174;DHT22;9719;49.322;8.536;2022-10-29T10:55:02;26.80;63.70
19174;DHT22;9719;49.322;8.536;2022-10-29T11:00:14;26.70;63.50
19174;DHT22;9719;49.322;8.536;2022-10-29T11:05:19;26.70;63.40
19174;DHT22;9719;49.322;8.536;2022-10-29T11:10:29;26.60;62.90
19174;DHT22;9719;49.322;8.536;2022-10-29T11:15:36;26.60;61.40
19174;DHT22;9719;49.322;8.536;2022-10-29T11:20:43;26.30;61.60
19174;DHT22;9719;49.322;8.536;2022-10-29T11:25:52;25.90;61.70
19174;DHT22;9719;49.322;8.536;2022-10-29T11:30:58;25.60;62.10
19174;DHT22;9719;49.322;8.536;2022-10-29T11:36:11;25.80;62.30
19174;DHT22;9719;49.322;8.536;2022-10-29T11:41:24;25.90;61.60
19174;DHT22;9719;49.322;8.536;2022-10-29T11:46:40;25.80;61.60
19174;DHT22;9719;49.322;8.536;2022-10-29T11:51:53;25.60;62.00
19174;DHT22;9719;49.322;8.536;2022-10-29T11:57:04;25.30;62.40
19174;DHT22;9719;49.322;8.536;2022-10-29T12:02:21;25.10;63.40
19174;DHT22;9719;49.322;8.536;2022-10-29T12:07:35;25.00;64.10
19174;DHT22;9719;49.322;8.536;2022-10-29T12:12:45;24.70;64.30
19174;DHT22;9719;49.322;8.536;2022-10-29T12:17:56;24.60;64.30
19174;DHT22;9719;49.322;8.536;2022-10-29T12:23:08;24.50;65.50
19174;DHT22;9719;49.322;8.536;2022-10-29T12:28:20;24.40;66.00
19174;DHT22;9719;49.322;8.536;2022-10-29T12:33:26;24.40;65.70
19174;DHT22;9719;49.322;8.536;2022-10-29T12:38:36;24.40;65.60
19174;DHT22;9719;49.322;8.536;2022-10-29T12:43:40;24.50;66.10
19174;DHT22;9719;49.322;8.536;2022-10-29T12:48:50;24.50;66.40
19174;DHT22;9719;49.322;8.536;2022-10-29T12:54:13;24.50;66.60
19174;DHT22;9719;49.322;8.536;2022-10-29T12:59:37;24.50;66.70
19174;DHT22;9719;49.322;8.536;2022-10-29T13:05:12;23.70;66.00
19174;DHT22;9719;49.322;8.536;2022-10-29T13:10:45;24.20;66.60
19174;DHT22;9719;49.322;8.536;2022-10-29T13:15:57;24.10;66.80
19174;DHT22;9719;49.322;8.536;2022-10-29T13:21:00;24.00;66.80
19174;DHT22;9719;49.322;8.536;2022-10-29T13:26:03;24.00;67.30
19174;DHT22;9719;49.322;8.536;2022-10-29T13:31:41;23.90;66.90
19174;DHT22;9719;49.322;8.536;2022-10-29T13:36:45;23.90;67.70
19174;DHT22;9719;49.322;8.536;2022-10-29T13:41:53;23.80;67.70
19174;DHT22;9719;49.322;8.536;2022-10-29T13:47:00;23.80;68.10
19174;DHT22;9719;49.322;8.536;2022-10-29T13:52:05;23.80;68.30
19174;DHT22;9719;49.322;8.536;2022-10-29T13:57:18;23.80;68.30
19174;DHT22;9719;49.322;8.536;2022-10-29T14:02:48;23.60;68.60
19174;DHT22;9719;49.322;8.536;2022-10-29T14:07:54;23.60;68.30
19174;DHT22;9719;49.322;8.536;2022-10-29T14:13:09;23.60;68.60
19174;DHT22;9719;49.322;8.536;2022-10-29T14:18:23;23.60;68.40
19174;DHT22;9719;49.322;8.536;2022-10-29T14:23:26;23.60;68.60
19174;DHT22;9719;49.322;8.536;2022-10-29T14:28:29;23.60;69.00
19174;DHT22;9719;49.322;8.536;2022-10-29T14:33:34;23.50;69.60
19174;DHT22;9719;49.322;8.536;2022-10-29T14:38:40;23.50;69.60
19174;DHT22;9719;49.322;8.536;2022-10-29T14:43:43;23.40;69.80
19174;DHT22;9719;49.322;8.536;2022-10-29T14:48:55;23.30;70.10
19174;DHT22;9719;49.322;8.536;2022-10-29T14:54:00;23.20;70.90
19174;DHT22;9719;49.322;8.536;2022-10-29T14:59:16;23.10;71.10
19174;DHT22;9719;49.322;8.536;2022-10-29T15:04:23;22.90;71.60
19174;DHT22;9719;49.322;8.536;2022-10-29T15:09:26;22.70;72.00
19174;DHT22;9719;49.322;8.536;2022-10-29T15:14:44;22.60;72.40
19174;DHT22;9719;49.322;8.536;2022-10-29T15:19:51;22.50;72.90
19174;DHT22;9719;49.322;8.536;2022-10-29T15:24:54;22.30;73.20
19174;DHT22;9719;49.322;8.536;2022-10-29T15:29:57;22.20;73.40
19174;DHT22;9719;49.322;8.536;2022-10-29T15:35:00;22.00;73.70
19174;DHT22;9719;49.322;8.536;2022-10-29T15:40:09;22.00;74.00
19174;DHT22;9719;49.322;8.536;2022-10-29T15:45:25;21.90;74.50
19174;DHT22;9719;49.322;8.536;2022-10-29T15:50:36;21.80;74.30
19174;DHT22;9719;49.322;8.536;2022-10-29T15:55:40;21.70;74.60
19174;DHT22;9719;49.322;8.536;2022-10-29T16:00:43;21.60;74.60
19174;DHT22;9719;49.322;8.536;2022-10-29T16:05:48;21.50;74.90
19174;DHT22;9719;49.322;8.536;2022-10-29T16:10:55;21.40;75.10
19174;DHT22;9719;49.322;8.536;2022-10-29T16:15:58;21.30;75.20
19174;DHT22;9719;49.322;8.536;2022-10-29T16:21:05;21.20;75.20
19174;DHT22;9719;49.322;8.536;2022-10-29T16:26:08;21.10;75.50
19174;DHT22;9719;49.322;8.536;2022-10-29T16:31:17;21.00;75.20
19174;DHT22;9719;49.322;8.536;2022-10-29T16:36:21;20.90;75.60
19174;DHT22;9719;49.322;8.536;2022-10-29T16:41:24;20.80;75.60
19174;DHT22;9719;49.322;8.536;2022-10-29T16:46:26;20.80;75.80
19174;DHT22;9719;49.322;8.536;2022-10-29T16:51:29;20.70;75.90
19174;DHT22;9719;49.322;8.536;2022-10-29T16:56:31;20.70;76.20
19174;DHT22;9719;49.322;8.536;2022-10-29T17:01:33;20.60;76.40
19174;DHT22;9719;49.322;8.536;2022-10-29T17:06:36;20.50;76.50
19174;DHT22;9719;49.322;8.536;2022-10-29T17:11:38;20.40;76.40
19174;DHT22;9719;49.322;8.536;2022-10-29T17:16:41;20.20;76.30
19174;DHT22;9719;49.322;8.536;2022-10-29T17:21:44;20.10;76.70
19174;DHT22;9719;49.322;8.536;2022-10-29T17:26:46;20.00;77.10
19174;DHT22;9719;49.322;8.536;2022-10-29T17:31:49;19.80;77.50
19174;DHT22;9719;49.322;8.536;2022-10-29T17:36:53;19.70;77.80
19174;DHT22;9719;49.322;8.536;2022-10-29T17:41:57;19.70;78.40
19174;DHT22;9719;49.322;8.536;2022-10-29T17:47:00;19.60;78.40
19174;DHT22;9719;49.322;8.536;2022-10-29T17:52:04;19.60;78.40
19174;DHT22;9719;49.322;8.536;2022-10-29T17:57:06;19.50;78.80
19174;DHT22;9719;49.322;8.536;2022-10-29T18:02:09;19.50;78.90
19174;DHT22;9719;49.322;8.536;2022-10-29T18:07:13;19.50;79.10
19174;DHT22;9719;49.322;8.536;2022-10-29T18:12:15;19.50;79.20
19174;DHT22;9719;49.322;8.536;2022-10-29T18:17:18;19.60;79.00
19174;DHT22;9719;49.322;8.536;2022-10-29T18:22:21;19.70;79.20
19174;DHT22;9719;49.322;8.536;2022-10-29T18:27:23;19.70;79.20
19174;DHT22;9719;49.322;8.536;2022-10-29T18:32:25;19.60;79.20
19174;DHT22;9719;49.322;8.536;2022-10-29T18:37:28;19.70;79.30
19174;DHT22;9719;49.322;8.536;2022-10-29T18:42:30;19.60;79.30
19174;DHT22;9719;49.322;8.536;2022-10-29T18:47:32;19.60;79.20
19174;DHT22;9719;49.322;8.536;2022-10-29T18:52:36;19.40;79.30
19174;DHT22;9719;49.322;8.536;2022-10-29T18:57:38;19.40;79.80
19174;DHT22;9719;49.322;8.536;2022-10-29T19:02:40;19.30;79.90
19174;DHT22;9719;49.322;8.536;2022-10-29T19:07:43;19.20;80.00
19174;DHT22;9719;49.322;8.536;2022-10-29T19:12:45;19.30;80.20
19174;DHT22;9719;49.322;8.536;2022-10-29T19:17:47;19.30;80.20
19174;DHT22;9719;49.322;8.536;2022-10-29T19:22:53;19.40;80.10
19174;DHT22;9719;49.322;8.536;2022-10-29T19:27:55;19.50;80.20
19174;DHT22;9719;49.322;8.536;2022-10-29T19:32:57;19.50;80.10
19174;DHT22;9719;49.322;8.536;2022-10-29T19:38:00;19.50;80.10
19174;DHT22;9719;49.322;8.536;2022-10-29T19:43:02;19.40;80.20
19174;DHT22;9719;49.322;8.536;2022-10-29T19:48:05;19.40;80.30
19174;DHT22;9719;49.322;8.536;2022-10-29T19:53:08;19.30;80.70
19174;DHT22;9719;49.322;8.536;2022-10-29T19:58:10;19.30;80.90
19174;DHT22;9719;49.322;8.536;2022-10-29T20:03:13;19.20;80.80
19174;DHT22;9719;49.322;8.536;2022-10-29T20:08:16;19.10;81.30
19174;DHT22;9719;49.322;8.536;2022-10-29T20:13:18;19.10;81.30
19174;DHT22;9719;49.322;8.536;2022-10-29T20:18:21;19.10;81.60
19174;DHT22;9719;49.322;8.536;2022-10-29T20:23:24;19.00;81.60
19174;DHT22;9719;49.322;8.536;2022-10-29T20:28:27;19.00;81.60
19174;DHT22;9719;49.322;8.536;2022-10-29T20:33:29;19.00;81.80
19174;DHT22;9719;49.322;8.536;2022-10-29T20:38:32;18.90;81.80
19174;DHT22;9719;49.322;8.536;2022-10-29T20:43:34;19.00;81.80
19174;DHT22;9719;49.322;8.536;2022-10-29T20:48:36;18.90;82.00
19174;DHT22;9719;49.322;8.536;2022-10-29T20:53:40;18.80;82.10
19174;DHT22;9719;49.322;8.536;2022-10-29T20:58:42;18.80;82.30
19174;DHT22;9719;49.322;8.536;2022-10-29T21:03:46;18.70;82.40
19174;DHT22;9719;49.322;8.536;2022-10-29T21:08:51;18.80;82.40
19174;DHT22;9719;49.322;8.536;2022-10-29T21:13:53;18.80;82.30
19174;DHT22;9719;49.322;8.536;2022-10-29T21:18:56;18.90;82.30
19174;DHT22;9719;49.322;8.536;2022-10-29T21:24:00;19.00;82.20
19174;DHT22;9719;49.322;8.536;2022-10-29T21:29:02;19.00;82.10
19174;DHT22;9719;49.322;8.536;2022-10-29T21:34:04;19.00;82.00
19174;DHT22;9719;49.322;8.536;2022-10-29T21:39:08;19.00;81.80
19174;DHT22;9719;49.322;8.536;2022-10-29T21:44:10;19.00;81.60
19174;DHT22;9719;49.322;8.536;2022-10-29T21:49:12;19.00;81.60
19174;DHT22;9719;49.322;8.536;2022-10-29T21:54:16;19.10;81.60
19174;DHT22;9719;49.322;8.536;2022-10-29T21:59:19;19.10;81.50
19174;DHT22;9719;49.322;8.536;2022-10-29T22:04:21;19.10;81.50
19174;DHT22;9719;49.322;8.536;2022-10-29T22:09:24;19.10;81.40
19174;DHT22;9719;49.322;8.536;2022-10-29T22:14:26;19.10;81.40
19174;DHT22;9719;49.322;8.536;2022-10-29T22:19:28;19.10;81.30
19174;DHT22;9719;49.322;8.536;2022-10-29T22:24:32;19.00;81.30
19174;DHT22;9719;49.322;8.536;2022-10-29T22:29:34;19.10;81.50
19174;DHT22;9719;49.322;8.536;2022-10-29T22:34:36;19.00;81.40
19174;DHT22;9719;49.322;8.536;2022-10-29T22:39:39;19.00;81.50
19174;DHT22;9719;49.322;8.536;2022-10-29T22:44:41;18.90;81.60
19174;DHT22;9719;49.322;8.536;2022-10-29T22:49:43;18.90;81.60
19174;DHT22;9719;49.322;8.536;2022-10-29T22:54:46;18.80;81.60
19174;DHT22;9719;49.322;8.536;2022-10-29T22:59:49;18.80;81.80
19174;DHT22;9719;49.322;8.536;2022-10-29T23:04:50;18.60;81.90
19174;DHT22;9719;49.322;8.536;2022-10-29T23:09:54;18.60;82.10
19174;DHT22;9719;49.322;8.536;2022-10-29T23:14:56;18.50;82.40
19174;DHT22;9719;49.322;8.536;2022-10-29T23:19:58;18.40;82.50
19174;DHT22;9719;49.322;8.536;2022-10-29T23:25:01;18.30;82.70
19174;DHT22;9719;49.322;8.536;2022-10-29T23:30:04;18.30;82.80
19174;DHT22;9719;49.322;8.536;2022-10-29T23:35:07;18.30;83.00
19174;DHT22;9719;49.322;8.536;2022-10-29T23:40:12;18.30;83.00
19174;DHT22;9719;49.322;8.536;2022-10-29T23:45:15;18.30;83.20
19174;DHT22;9719;49.322;8.536;2022-10-29T23:50:17;18.30;83.20
19174;DHT22;9719;49.322;8.536;2022-10-29T23:55:20;18.30;83.20
